KSEE/SEE METAR and TAF weather

Enter ICAO airport designator
Station Type Date Time Source
KSEE METAR 2022/06/25 22:47 UTC NOAA

KSEE 252247Z 28013KT 10SM SKC 32/06 A2988


Station Type Date Time Source
KSEE Decoded METAR 2022/06/25 22:47 UTC NOAA

San Diego/El Cajon, Gillespie Field Airport, CA, United States (KSEE) 32-49-34N 116-58-20W
Jun 25, 2022 - 06:47 PM EDT / 2022.06.25 2247 UTC
Wind: from the W (280 degrees) at 15 MPH (13 KT):0
Visibility: 10 mile(s):0
Sky conditions: clear
Temperature: 89 F (32 C)
Dew Point: 42 F (6 C)
Relative Humidity: 19%
Pressure (altimeter): 29.88 in. Hg (1011 hPa)
ob: KSEE 252247Z 28013KT 10SM SKC 32/06 A2988
cycle: 23

Station Type Date Time Source
KSEE TAF UTC NOAA

Error!

Example: see airport list